Hawks, Michigan
Current Conditions -  °F | °C
As of 5:34 PM on Monday 26 Jan 2015 (Local Time) from KPZQ Reporting Station
Light Snow Light Snow  
Wind Chill:   Ceiling: 3700
Heat Index: 19°   Visibility: 2.5mi
Dew Point: 16°   Wind: 9mph
Humidity: 88%   Direction: 110°ESE
Pressure: 30.01"   Gusts: NA
Location:  45.3°N, 83.89°W
Report Text: KPZQ 262234Z AUTO 11008KT 2 1/2SM -SN OVC037 M07/M09 A3001 RMK AO2 T10701087
Loading
Personal Weather Stations






























Interactive Weather Map New forecast layout! Learn more

10-Day Weather Forecast

Advertisements
Track Severe Weather on mobile